sensor_id;sensor_type;location;lat;lon;timestamp;P1;durP1;ratioP1;P2;durP2;ratioP2
23082;SDS011;11709;52.420;10.538;2022-07-29T00:02:03;5.15;;;1.67;;
23082;SDS011;11709;52.420;10.538;2022-07-29T00:06:06;4.08;;;1.52;;
23082;SDS011;11709;52.420;10.538;2022-07-29T00:10:09;8.88;;;1.65;;
23082;SDS011;11709;52.420;10.538;2022-07-29T00:14:11;5.45;;;1.60;;
23082;SDS011;11709;52.420;10.538;2022-07-29T00:18:14;3.83;;;1.70;;
23082;SDS011;11709;52.420;10.538;2022-07-29T00:22:16;4.28;;;1.30;;
23082;SDS011;11709;52.420;10.538;2022-07-29T00:26:19;4.72;;;1.70;;
23082;SDS011;11709;52.420;10.538;2022-07-29T00:30:22;3.95;;;1.80;;
23082;SDS011;11709;52.420;10.538;2022-07-29T00:34:24;1.95;;;1.27;;
23082;SDS011;11709;52.420;10.538;2022-07-29T00:38:45;2.95;;;1.50;;
23082;SDS011;11709;52.420;10.538;2022-07-29T00:42:48;6.15;;;1.70;;
23082;SDS011;11709;52.420;10.538;2022-07-29T00:46:52;4.47;;;2.00;;
23082;SDS011;11709;52.420;10.538;2022-07-29T00:50:55;4.20;;;1.67;;
23082;SDS011;11709;52.420;10.538;2022-07-29T00:54:59;8.18;;;1.70;;
23082;SDS011;11709;52.420;10.538;2022-07-29T00:59:02;4.50;;;1.92;;
23082;SDS011;11709;52.420;10.538;2022-07-29T01:03:04;4.15;;;1.90;;
23082;SDS011;11709;52.420;10.538;2022-07-29T01:07:07;2.85;;;1.60;;
23082;SDS011;11709;52.420;10.538;2022-07-29T01:11:10;6.95;;;1.80;;
23082;SDS011;11709;52.420;10.538;2022-07-29T01:15:13;12.78;;;2.47;;
23082;SDS011;11709;52.420;10.538;2022-07-29T01:32:30;4.30;;;1.82;;
23082;SDS011;11709;52.420;10.538;2022-07-29T01:36:36;7.08;;;1.85;;
23082;SDS011;11709;52.420;10.538;2022-07-29T01:40:43;4.90;;;1.85;;
23082;SDS011;11709;52.420;10.538;2022-07-29T01:48:56;5.47;;;2.20;;
23082;SDS011;11709;52.420;10.538;2022-07-29T01:53:01;4.22;;;1.75;;
23082;SDS011;11709;52.420;10.538;2022-07-29T01:57:06;4.03;;;1.77;;
23082;SDS011;11709;52.420;10.538;2022-07-29T02:01:11;7.35;;;1.62;;
23082;SDS011;11709;52.420;10.538;2022-07-29T02:05:15;6.17;;;1.92;;
23082;SDS011;11709;52.420;10.538;2022-07-29T02:09:20;5.72;;;2.00;;
23082;SDS011;11709;52.420;10.538;2022-07-29T02:13:26;3.67;;;1.90;;
23082;SDS011;11709;52.420;10.538;2022-07-29T02:17:33;4.25;;;1.92;;
23082;SDS011;11709;52.420;10.538;2022-07-29T02:21:38;4.12;;;2.20;;
23082;SDS011;11709;52.420;10.538;2022-07-29T02:25:43;8.30;;;1.98;;
23082;SDS011;11709;52.420;10.538;2022-07-29T02:29:46;7.70;;;2.20;;
23082;SDS011;11709;52.420;10.538;2022-07-29T02:33:50;5.03;;;2.12;;
23082;SDS011;11709;52.420;10.538;2022-07-29T02:37:55;6.50;;;1.90;;
23082;SDS011;11709;52.420;10.538;2022-07-29T02:42:15;5.87;;;2.02;;
23082;SDS011;11709;52.420;10.538;2022-07-29T02:46:19;4.53;;;2.50;;
23082;SDS011;11709;52.420;10.538;2022-07-29T02:50:29;3.75;;;2.20;;
23082;SDS011;11709;52.420;10.538;2022-07-29T02:54:41;7.85;;;2.40;;
23082;SDS011;11709;52.420;10.538;2022-07-29T02:58:45;4.62;;;1.90;;
23082;SDS011;11709;52.420;10.538;2022-07-29T03:02:50;11.18;;;2.83;;
23082;SDS011;11709;52.420;10.538;2022-07-29T03:06:57;9.57;;;2.50;;
23082;SDS011;11709;52.420;10.538;2022-07-29T03:11:01;4.40;;;2.55;;
23082;SDS011;11709;52.420;10.538;2022-07-29T03:15:05;6.75;;;2.45;;
23082;SDS011;11709;52.420;10.538;2022-07-29T03:19:09;8.90;;;3.00;;
23082;SDS011;11709;52.420;10.538;2022-07-29T03:23:11;5.55;;;2.30;;
23082;SDS011;11709;52.420;10.538;2022-07-29T03:27:15;3.42;;;2.40;;
23082;SDS011;11709;52.420;10.538;2022-07-29T03:31:18;4.10;;;2.47;;
23082;SDS011;11709;52.420;10.538;2022-07-29T03:35:21;4.90;;;2.80;;
23082;SDS011;11709;52.420;10.538;2022-07-29T03:39:25;5.58;;;2.77;;
23082;SDS011;11709;52.420;10.538;2022-07-29T03:43:30;9.90;;;2.77;;
23082;SDS011;11709;52.420;10.538;2022-07-29T03:47:34;4.92;;;3.30;;
23082;SDS011;11709;52.420;10.538;2022-07-29T03:51:39;3.35;;;2.47;;
23082;SDS011;11709;52.420;10.538;2022-07-29T03:55:43;7.17;;;2.70;;
23082;SDS011;11709;52.420;10.538;2022-07-29T03:59:47;3.72;;;3.05;;
23082;SDS011;11709;52.420;10.538;2022-07-29T04:03:51;5.67;;;3.00;;
23082;SDS011;11709;52.420;10.538;2022-07-29T04:07:54;6.55;;;2.72;;
23082;SDS011;11709;52.420;10.538;2022-07-29T04:11:56;9.58;;;3.27;;
23082;SDS011;11709;52.420;10.538;2022-07-29T04:15:59;7.45;;;3.40;;
23082;SDS011;11709;52.420;10.538;2022-07-29T04:20:02;8.10;;;3.20;;
23082;SDS011;11709;52.420;10.538;2022-07-29T04:24:05;7.00;;;2.92;;
23082;SDS011;11709;52.420;10.538;2022-07-29T04:28:08;4.55;;;2.55;;
23082;SDS011;11709;52.420;10.538;2022-07-29T04:32:11;8.43;;;3.30;;
23082;SDS011;11709;52.420;10.538;2022-07-29T04:36:14;6.58;;;3.17;;
23082;SDS011;11709;52.420;10.538;2022-07-29T04:40:16;6.00;;;2.98;;
23082;SDS011;11709;52.420;10.538;2022-07-29T04:44:19;9.93;;;3.08;;
23082;SDS011;11709;52.420;10.538;2022-07-29T04:48:21;10.00;;;3.70;;
23082;SDS011;11709;52.420;10.538;2022-07-29T04:52:24;6.58;;;2.87;;
23082;SDS011;11709;52.420;10.538;2022-07-29T04:56:27;9.00;;;3.12;;
23082;SDS011;11709;52.420;10.538;2022-07-29T05:00:29;7.00;;;3.42;;
23082;SDS011;11709;52.420;10.538;2022-07-29T05:04:32;6.10;;;2.85;;
23082;SDS011;11709;52.420;10.538;2022-07-29T05:08:34;12.90;;;4.12;;
23082;SDS011;11709;52.420;10.538;2022-07-29T05:12:37;6.15;;;3.50;;
23082;SDS011;11709;52.420;10.538;2022-07-29T05:16:52;7.67;;;3.40;;
23082;SDS011;11709;52.420;10.538;2022-07-29T05:20:56;8.78;;;3.55;;
23082;SDS011;11709;52.420;10.538;2022-07-29T05:24:59;9.45;;;3.62;;
23082;SDS011;11709;52.420;10.538;2022-07-29T05:29:01;8.20;;;4.08;;
23082;SDS011;11709;52.420;10.538;2022-07-29T05:33:04;6.85;;;3.67;;
23082;SDS011;11709;52.420;10.538;2022-07-29T05:37:06;8.28;;;3.55;;
23082;SDS011;11709;52.420;10.538;2022-07-29T05:41:09;8.60;;;3.92;;
23082;SDS011;11709;52.420;10.538;2022-07-29T05:45:11;10.20;;;4.20;;
23082;SDS011;11709;52.420;10.538;2022-07-29T05:49:14;8.35;;;3.98;;
23082;SDS011;11709;52.420;10.538;2022-07-29T05:53:16;9.38;;;4.30;;
23082;SDS011;11709;52.420;10.538;2022-07-29T05:57:20;6.92;;;3.85;;
23082;SDS011;11709;52.420;10.538;2022-07-29T06:01:23;11.85;;;4.40;;
23082;SDS011;11709;52.420;10.538;2022-07-29T06:05:26;6.62;;;4.50;;
23082;SDS011;11709;52.420;10.538;2022-07-29T06:09:29;6.95;;;3.77;;
23082;SDS011;11709;52.420;10.538;2022-07-29T06:13:32;10.05;;;3.95;;
23082;SDS011;11709;52.420;10.538;2022-07-29T06:17:34;9.90;;;4.15;;
23082;SDS011;11709;52.420;10.538;2022-07-29T06:21:41;7.17;;;4.50;;
23082;SDS011;11709;52.420;10.538;2022-07-29T06:25:44;9.15;;;3.85;;
23082;SDS011;11709;52.420;10.538;2022-07-29T06:29:46;8.68;;;4.10;;
23082;SDS011;11709;52.420;10.538;2022-07-29T06:33:49;7.92;;;4.12;;
23082;SDS011;11709;52.420;10.538;2022-07-29T06:37:52;7.70;;;4.10;;
23082;SDS011;11709;52.420;10.538;2022-07-29T06:41:54;9.03;;;4.42;;
23082;SDS011;11709;52.420;10.538;2022-07-29T06:45:58;11.20;;;4.15;;
23082;SDS011;11709;52.420;10.538;2022-07-29T06:50:02;8.10;;;4.17;;
23082;SDS011;11709;52.420;10.538;2022-07-29T06:54:05;12.37;;;4.20;;
23082;SDS011;11709;52.420;10.538;2022-07-29T06:58:08;12.35;;;4.20;;
23082;SDS011;11709;52.420;10.538;2022-07-29T07:02:12;7.53;;;4.58;;
23082;SDS011;11709;52.420;10.538;2022-07-29T07:06:15;8.73;;;4.83;;
23082;SDS011;11709;52.420;10.538;2022-07-29T07:10:17;8.00;;;4.72;;
23082;SDS011;11709;52.420;10.538;2022-07-29T07:14:20;11.00;;;4.87;;
23082;SDS011;11709;52.420;10.538;2022-07-29T07:18:22;11.53;;;4.45;;
23082;SDS011;11709;52.420;10.538;2022-07-29T07:22:25;6.60;;;4.40;;
23082;SDS011;11709;52.420;10.538;2022-07-29T07:26:27;8.20;;;3.95;;
23082;SDS011;11709;52.420;10.538;2022-07-29T07:30:30;11.30;;;4.37;;
23082;SDS011;11709;52.420;10.538;2022-07-29T07:34:32;8.90;;;4.65;;
23082;SDS011;11709;52.420;10.538;2022-07-29T07:38:35;8.58;;;4.47;;
23082;SDS011;11709;52.420;10.538;2022-07-29T07:42:38;8.85;;;4.20;;
23082;SDS011;11709;52.420;10.538;2022-07-29T07:46:41;7.95;;;4.20;;
23082;SDS011;11709;52.420;10.538;2022-07-29T07:50:45;9.43;;;3.75;;
23082;SDS011;11709;52.420;10.538;2022-07-29T07:54:50;12.45;;;4.00;;
23082;SDS011;11709;52.420;10.538;2022-07-29T07:58:53;6.55;;;3.83;;
23082;SDS011;11709;52.420;10.538;2022-07-29T08:02:56;9.98;;;4.40;;
23082;SDS011;11709;52.420;10.538;2022-07-29T08:07:00;8.48;;;3.95;;
23082;SDS011;11709;52.420;10.538;2022-07-29T08:11:03;7.85;;;4.40;;
23082;SDS011;11709;52.420;10.538;2022-07-29T08:15:07;11.15;;;3.83;;
23082;SDS011;11709;52.420;10.538;2022-07-29T08:19:10;8.05;;;3.65;;
23082;SDS011;11709;52.420;10.538;2022-07-29T08:23:12;8.70;;;4.00;;
23082;SDS011;11709;52.420;10.538;2022-07-29T08:27:15;7.95;;;3.80;;
23082;SDS011;11709;52.420;10.538;2022-07-29T08:31:18;8.23;;;4.00;;
23082;SDS011;11709;52.420;10.538;2022-07-29T08:35:21;9.53;;;3.80;;
23082;SDS011;11709;52.420;10.538;2022-07-29T08:39:25;10.48;;;4.30;;
23082;SDS011;11709;52.420;10.538;2022-07-29T08:43:27;8.05;;;3.55;;
23082;SDS011;11709;52.420;10.538;2022-07-29T08:47:30;10.68;;;3.83;;
23082;SDS011;11709;52.420;10.538;2022-07-29T08:51:34;6.72;;;3.75;;
23082;SDS011;11709;52.420;10.538;2022-07-29T08:55:42;9.33;;;3.72;;
23082;SDS011;11709;52.420;10.538;2022-07-29T08:59:47;6.30;;;3.58;;
23082;SDS011;11709;52.420;10.538;2022-07-29T09:03:51;6.95;;;3.42;;
23082;SDS011;11709;52.420;10.538;2022-07-29T09:08:01;7.50;;;3.60;;
23082;SDS011;11709;52.420;10.538;2022-07-29T09:12:06;7.45;;;3.55;;
23082;SDS011;11709;52.420;10.538;2022-07-29T09:16:08;10.03;;;3.95;;
23082;SDS011;11709;52.420;10.538;2022-07-29T09:20:12;7.25;;;3.87;;
23082;SDS011;11709;52.420;10.538;2022-07-29T09:24:17;10.25;;;3.87;;
23082;SDS011;11709;52.420;10.538;2022-07-29T09:28:19;9.38;;;3.80;;
23082;SDS011;11709;52.420;10.538;2022-07-29T09:32:23;6.12;;;3.67;;
23082;SDS011;11709;52.420;10.538;2022-07-29T09:36:27;8.38;;;3.12;;
23082;SDS011;11709;52.420;10.538;2022-07-29T09:40:30;9.35;;;3.40;;
23082;SDS011;11709;52.420;10.538;2022-07-29T09:44:48;4.42;;;3.27;;
23082;SDS011;11709;52.420;10.538;2022-07-29T09:49:10;6.80;;;3.80;;
23082;SDS011;11709;52.420;10.538;2022-07-29T09:53:35;7.00;;;3.40;;
23082;SDS011;11709;52.420;10.538;2022-07-29T09:57:38;6.87;;;3.47;;
23082;SDS011;11709;52.420;10.538;2022-07-29T10:01:41;8.18;;;3.50;;
23082;SDS011;11709;52.420;10.538;2022-07-29T10:05:44;6.80;;;3.50;;
23082;SDS011;11709;52.420;10.538;2022-07-29T10:09:54;6.90;;;3.47;;
23082;SDS011;11709;52.420;10.538;2022-07-29T10:13:58;8.95;;;3.40;;
23082;SDS011;11709;52.420;10.538;2022-07-29T10:18:03;8.13;;;3.08;;
23082;SDS011;11709;52.420;10.538;2022-07-29T10:22:08;8.63;;;3.05;;
23082;SDS011;11709;52.420;10.538;2022-07-29T10:26:11;8.33;;;3.40;;
23082;SDS011;11709;52.420;10.538;2022-07-29T10:30:15;7.40;;;3.10;;
23082;SDS011;11709;52.420;10.538;2022-07-29T10:34:21;6.45;;;3.05;;
23082;SDS011;11709;52.420;10.538;2022-07-29T10:42:49;13.10;;;3.77;;
23082;SDS011;11709;52.420;10.538;2022-07-29T10:46:54;5.87;;;3.08;;
23082;SDS011;11709;52.420;10.538;2022-07-29T10:51:00;5.20;;;2.90;;
23082;SDS011;11709;52.420;10.538;2022-07-29T10:55:05;7.75;;;3.02;;
23082;SDS011;11709;52.420;10.538;2022-07-29T11:03:44;7.30;;;3.50;;
23082;SDS011;11709;52.420;10.538;2022-07-29T11:13:01;9.05;;;3.25;;
23082;SDS011;11709;52.420;10.538;2022-07-29T11:16:58;6.30;;;3.22;;
23082;SDS011;11709;52.420;10.538;2022-07-29T11:21:05;3.60;;;3.30;;
23082;SDS011;11709;52.420;10.538;2022-07-29T11:25:15;8.23;;;3.50;;
23082;SDS011;11709;52.420;10.538;2022-07-29T11:29:20;6.15;;;3.50;;
23082;SDS011;11709;52.420;10.538;2022-07-29T11:33:27;8.48;;;3.52;;
23082;SDS011;11709;52.420;10.538;2022-07-29T11:37:30;8.85;;;3.00;;
23082;SDS011;11709;52.420;10.538;2022-07-29T11:41:33;7.15;;;3.00;;
23082;SDS011;11709;52.420;10.538;2022-07-29T11:45:46;5.47;;;3.25;;
23082;SDS011;11709;52.420;10.538;2022-07-29T11:49:52;3.60;;;3.08;;
23082;SDS011;11709;52.420;10.538;2022-07-29T11:57:59;6.20;;;3.20;;
23082;SDS011;11709;52.420;10.538;2022-07-29T12:02:02;9.05;;;3.40;;
23082;SDS011;11709;52.420;10.538;2022-07-29T12:06:14;9.23;;;3.30;;
23082;SDS011;11709;52.420;10.538;2022-07-29T12:10:14;7.45;;;3.15;;
23082;SDS011;11709;52.420;10.538;2022-07-29T12:14:26;8.05;;;3.90;;
23082;SDS011;11709;52.420;10.538;2022-07-29T12:18:30;9.93;;;4.00;;
23082;SDS011;11709;52.420;10.538;2022-07-29T12:22:34;6.28;;;3.35;;
23082;SDS011;11709;52.420;10.538;2022-07-29T12:26:52;5.75;;;3.30;;
23082;SDS011;11709;52.420;10.538;2022-07-29T12:30:56;7.00;;;3.52;;
23082;SDS011;11709;52.420;10.538;2022-07-29T12:34:59;4.65;;;3.45;;
23082;SDS011;11709;52.420;10.538;2022-07-29T12:39:10;6.85;;;3.70;;
23082;SDS011;11709;52.420;10.538;2022-07-29T12:43:14;5.37;;;3.20;;
23082;SDS011;11709;52.420;10.538;2022-07-29T12:47:19;6.42;;;3.58;;
23082;SDS011;11709;52.420;10.538;2022-07-29T12:51:29;6.83;;;3.40;;
23082;SDS011;11709;52.420;10.538;2022-07-29T12:55:43;8.80;;;3.50;;
23082;SDS011;11709;52.420;10.538;2022-07-29T12:59:59;9.40;;;3.30;;
23082;SDS011;11709;52.420;10.538;2022-07-29T13:04:13;7.20;;;3.17;;
23082;SDS011;11709;52.420;10.538;2022-07-29T13:08:32;6.50;;;3.25;;
23082;SDS011;11709;52.420;10.538;2022-07-29T13:12:35;4.55;;;2.98;;
23082;SDS011;11709;52.420;10.538;2022-07-29T13:17:00;11.90;;;3.42;;
23082;SDS011;11709;52.420;10.538;2022-07-29T13:21:13;5.42;;;3.37;;
23082;SDS011;11709;52.420;10.538;2022-07-29T13:25:26;5.12;;;3.35;;
23082;SDS011;11709;52.420;10.538;2022-07-29T13:29:28;7.03;;;2.87;;
23082;SDS011;11709;52.420;10.538;2022-07-29T13:33:30;4.30;;;3.20;;
23082;SDS011;11709;52.420;10.538;2022-07-29T13:37:33;6.28;;;3.33;;
23082;SDS011;11709;52.420;10.538;2022-07-29T13:41:38;9.53;;;3.22;;
23082;SDS011;11709;52.420;10.538;2022-07-29T13:45:41;9.33;;;3.35;;
23082;SDS011;11709;52.420;10.538;2022-07-29T13:49:43;11.08;;;3.22;;
23082;SDS011;11709;52.420;10.538;2022-07-29T13:53:46;6.60;;;3.17;;
23082;SDS011;11709;52.420;10.538;2022-07-29T13:57:48;5.00;;;3.33;;
23082;SDS011;11709;52.420;10.538;2022-07-29T14:01:51;6.15;;;2.92;;
23082;SDS011;11709;52.420;10.538;2022-07-29T14:05:53;5.47;;;2.85;;
23082;SDS011;11709;52.420;10.538;2022-07-29T14:09:57;4.95;;;3.33;;
23082;SDS011;11709;52.420;10.538;2022-07-29T14:13:59;4.28;;;3.05;;
23082;SDS011;11709;52.420;10.538;2022-07-29T14:18:02;5.40;;;2.60;;
23082;SDS011;11709;52.420;10.538;2022-07-29T14:22:04;5.10;;;3.10;;
23082;SDS011;11709;52.420;10.538;2022-07-29T14:26:09;6.75;;;3.20;;
23082;SDS011;11709;52.420;10.538;2022-07-29T14:30:11;5.37;;;2.83;;
23082;SDS011;11709;52.420;10.538;2022-07-29T14:34:14;6.53;;;2.95;;
23082;SDS011;11709;52.420;10.538;2022-07-29T14:38:17;7.65;;;3.50;;
23082;SDS011;11709;52.420;10.538;2022-07-29T14:42:19;5.33;;;3.15;;
23082;SDS011;11709;52.420;10.538;2022-07-29T14:46:22;5.42;;;2.95;;
23082;SDS011;11709;52.420;10.538;2022-07-29T14:50:24;4.47;;;2.90;;
23082;SDS011;11709;52.420;10.538;2022-07-29T14:54:27;10.15;;;3.72;;
23082;SDS011;11709;52.420;10.538;2022-07-29T14:58:29;4.75;;;2.92;;
23082;SDS011;11709;52.420;10.538;2022-07-29T15:02:32;3.65;;;2.98;;
23082;SDS011;11709;52.420;10.538;2022-07-29T15:06:35;2.90;;;2.60;;
23082;SDS011;11709;52.420;10.538;2022-07-29T15:10:38;5.03;;;2.80;;
23082;SDS011;11709;52.420;10.538;2022-07-29T15:14:41;3.62;;;3.05;;
23082;SDS011;11709;52.420;10.538;2022-07-29T15:18:43;5.70;;;3.65;;
23082;SDS011;11709;52.420;10.538;2022-07-29T15:22:46;6.70;;;3.30;;
23082;SDS011;11709;52.420;10.538;2022-07-29T15:26:48;6.92;;;3.70;;
23082;SDS011;11709;52.420;10.538;2022-07-29T15:30:51;5.90;;;3.40;;
23082;SDS011;11709;52.420;10.538;2022-07-29T15:34:53;5.75;;;3.47;;
23082;SDS011;11709;52.420;10.538;2022-07-29T15:38:56;4.33;;;3.02;;
23082;SDS011;11709;52.420;10.538;2022-07-29T15:42:59;8.85;;;3.27;;
23082;SDS011;11709;52.420;10.538;2022-07-29T15:47:04;5.47;;;3.83;;
23082;SDS011;11709;52.420;10.538;2022-07-29T15:51:07;5.67;;;3.15;;
23082;SDS011;11709;52.420;10.538;2022-07-29T15:55:09;6.30;;;3.30;;
23082;SDS011;11709;52.420;10.538;2022-07-29T15:59:12;5.35;;;2.83;;
23082;SDS011;11709;52.420;10.538;2022-07-29T16:03:14;6.92;;;2.87;;
23082;SDS011;11709;52.420;10.538;2022-07-29T16:07:17;7.45;;;3.40;;
23082;SDS011;11709;52.420;10.538;2022-07-29T16:11:20;13.32;;;3.50;;
23082;SDS011;11709;52.420;10.538;2022-07-29T16:15:22;4.70;;;3.25;;
23082;SDS011;11709;52.420;10.538;2022-07-29T16:19:25;7.10;;;3.40;;
23082;SDS011;11709;52.420;10.538;2022-07-29T16:23:27;4.25;;;3.30;;
23082;SDS011;11709;52.420;10.538;2022-07-29T16:27:30;8.43;;;3.10;;
23082;SDS011;11709;52.420;10.538;2022-07-29T16:31:33;5.67;;;3.40;;
23082;SDS011;11709;52.420;10.538;2022-07-29T16:35:35;5.08;;;3.17;;
23082;SDS011;11709;52.420;10.538;2022-07-29T16:39:40;5.67;;;3.15;;
23082;SDS011;11709;52.420;10.538;2022-07-29T16:43:43;5.45;;;3.00;;
23082;SDS011;11709;52.420;10.538;2022-07-29T16:47:45;5.45;;;3.52;;
23082;SDS011;11709;52.420;10.538;2022-07-29T16:51:48;3.30;;;3.00;;
23082;SDS011;11709;52.420;10.538;2022-07-29T16:55:50;4.28;;;3.25;;
23082;SDS011;11709;52.420;10.538;2022-07-29T16:59:53;5.75;;;3.30;;
23082;SDS011;11709;52.420;10.538;2022-07-29T17:03:55;5.75;;;3.37;;
23082;SDS011;11709;52.420;10.538;2022-07-29T17:08:07;4.08;;;3.12;;
23082;SDS011;11709;52.420;10.538;2022-07-29T17:12:09;7.85;;;3.55;;
23082;SDS011;11709;52.420;10.538;2022-07-29T17:16:12;4.67;;;3.02;;
23082;SDS011;11709;52.420;10.538;2022-07-29T17:20:14;5.22;;;3.62;;
23082;SDS011;11709;52.420;10.538;2022-07-29T17:24:17;8.50;;;3.02;;
23082;SDS011;11709;52.420;10.538;2022-07-29T17:28:20;6.28;;;3.52;;
23082;SDS011;11709;52.420;10.538;2022-07-29T17:32:22;5.95;;;2.87;;
23082;SDS011;11709;52.420;10.538;2022-07-29T17:36:25;7.22;;;3.10;;
23082;SDS011;11709;52.420;10.538;2022-07-29T17:40:27;6.62;;;3.45;;
23082;SDS011;11709;52.420;10.538;2022-07-29T17:44:30;8.00;;;3.33;;
23082;SDS011;11709;52.420;10.538;2022-07-29T17:48:33;4.28;;;2.87;;
23082;SDS011;11709;52.420;10.538;2022-07-29T17:52:36;3.92;;;3.17;;
23082;SDS011;11709;52.420;10.538;2022-07-29T17:56:38;4.72;;;3.33;;
23082;SDS011;11709;52.420;10.538;2022-07-29T18:00:41;4.90;;;3.02;;
23082;SDS011;11709;52.420;10.538;2022-07-29T18:04:44;6.25;;;3.47;;
23082;SDS011;11709;52.420;10.538;2022-07-29T18:08:47;6.58;;;3.20;;
23082;SDS011;11709;52.420;10.538;2022-07-29T18:12:49;6.85;;;3.55;;
23082;SDS011;11709;52.420;10.538;2022-07-29T18:16:52;5.62;;;3.75;;
23082;SDS011;11709;52.420;10.538;2022-07-29T18:20:54;10.13;;;3.20;;
23082;SDS011;11709;52.420;10.538;2022-07-29T18:24:57;8.28;;;3.50;;
23082;SDS011;11709;52.420;10.538;2022-07-29T18:28:59;4.72;;;3.77;;
23082;SDS011;11709;52.420;10.538;2022-07-29T18:33:03;4.22;;;3.33;;
23082;SDS011;11709;52.420;10.538;2022-07-29T18:37:08;5.50;;;3.22;;
23082;SDS011;11709;52.420;10.538;2022-07-29T18:41:10;6.85;;;3.42;;
23082;SDS011;11709;52.420;10.538;2022-07-29T18:45:13;7.47;;;3.85;;
23082;SDS011;11709;52.420;10.538;2022-07-29T18:49:15;7.17;;;3.33;;
23082;SDS011;11709;52.420;10.538;2022-07-29T18:53:18;7.53;;;3.90;;
23082;SDS011;11709;52.420;10.538;2022-07-29T18:57:20;6.72;;;3.67;;
23082;SDS011;11709;52.420;10.538;2022-07-29T19:01:23;8.48;;;3.52;;
23082;SDS011;11709;52.420;10.538;2022-07-29T19:05:25;4.37;;;3.45;;
23082;SDS011;11709;52.420;10.538;2022-07-29T19:09:28;4.80;;;3.33;;
23082;SDS011;11709;52.420;10.538;2022-07-29T19:13:31;8.30;;;3.75;;
23082;SDS011;11709;52.420;10.538;2022-07-29T19:17:34;4.92;;;4.08;;
23082;SDS011;11709;52.420;10.538;2022-07-29T19:21:37;6.00;;;3.83;;
23082;SDS011;11709;52.420;10.538;2022-07-29T19:25:40;9.58;;;3.62;;
23082;SDS011;11709;52.420;10.538;2022-07-29T19:29:43;6.72;;;3.70;;
23082;SDS011;11709;52.420;10.538;2022-07-29T19:33:45;6.92;;;3.75;;
23082;SDS011;11709;52.420;10.538;2022-07-29T19:37:48;8.33;;;4.47;;
23082;SDS011;11709;52.420;10.538;2022-07-29T19:41:52;9.73;;;4.03;;
23082;SDS011;11709;52.420;10.538;2022-07-29T19:45:55;11.30;;;4.15;;
23082;SDS011;11709;52.420;10.538;2022-07-29T19:49:58;10.90;;;3.85;;
23082;SDS011;11709;52.420;10.538;2022-07-29T19:54:00;11.83;;;4.10;;
23082;SDS011;11709;52.420;10.538;2022-07-29T19:58:03;7.05;;;3.47;;
23082;SDS011;11709;52.420;10.538;2022-07-29T20:02:06;14.93;;;4.42;;
23082;SDS011;11709;52.420;10.538;2022-07-29T20:06:12;9.43;;;4.28;;
23082;SDS011;11709;52.420;10.538;2022-07-29T20:10:15;10.95;;;4.35;;
23082;SDS011;11709;52.420;10.538;2022-07-29T20:14:17;8.48;;;3.90;;
23082;SDS011;11709;52.420;10.538;2022-07-29T20:18:20;4.97;;;3.60;;
23082;SDS011;11709;52.420;10.538;2022-07-29T20:22:22;5.15;;;3.58;;
23082;SDS011;11709;52.420;10.538;2022-07-29T20:26:25;10.48;;;4.22;;
23082;SDS011;11709;52.420;10.538;2022-07-29T20:30:27;5.30;;;3.95;;
23082;SDS011;11709;52.420;10.538;2022-07-29T20:34:30;6.12;;;4.30;;
23082;SDS011;11709;52.420;10.538;2022-07-29T20:38:32;6.42;;;4.00;;
23082;SDS011;11709;52.420;10.538;2022-07-29T20:42:35;6.53;;;4.17;;
23082;SDS011;11709;52.420;10.538;2022-07-29T20:46:37;11.30;;;4.42;;
23082;SDS011;11709;52.420;10.538;2022-07-29T20:50:40;10.45;;;4.00;;
23082;SDS011;11709;52.420;10.538;2022-07-29T20:54:45;5.80;;;4.10;;
23082;SDS011;11709;52.420;10.538;2022-07-29T20:58:48;7.00;;;4.75;;
23082;SDS011;11709;52.420;10.538;2022-07-29T21:02:51;8.75;;;5.22;;
23082;SDS011;11709;52.420;10.538;2022-07-29T21:06:53;9.05;;;4.45;;
23082;SDS011;11709;52.420;10.538;2022-07-29T21:10:56;7.22;;;4.58;;
23082;SDS011;11709;52.420;10.538;2022-07-29T21:14:58;5.00;;;4.03;;
23082;SDS011;11709;52.420;10.538;2022-07-29T21:19:02;8.45;;;4.50;;
23082;SDS011;11709;52.420;10.538;2022-07-29T21:23:05;8.55;;;4.53;;
23082;SDS011;11709;52.420;10.538;2022-07-29T21:27:07;7.08;;;4.08;;
23082;SDS011;11709;52.420;10.538;2022-07-29T21:31:28;9.35;;;3.83;;
23082;SDS011;11709;52.420;10.538;2022-07-29T21:35:30;6.60;;;3.77;;
23082;SDS011;11709;52.420;10.538;2022-07-29T21:39:33;10.50;;;4.10;;
23082;SDS011;11709;52.420;10.538;2022-07-29T21:43:35;6.83;;;3.80;;
23082;SDS011;11709;52.420;10.538;2022-07-29T21:47:38;8.50;;;4.00;;
23082;SDS011;11709;52.420;10.538;2022-07-29T21:51:41;6.20;;;3.80;;
23082;SDS011;11709;52.420;10.538;2022-07-29T21:55:43;8.53;;;4.00;;
23082;SDS011;11709;52.420;10.538;2022-07-29T21:59:46;6.85;;;4.08;;
23082;SDS011;11709;52.420;10.538;2022-07-29T22:03:49;7.20;;;3.83;;
23082;SDS011;11709;52.420;10.538;2022-07-29T22:07:51;6.78;;;4.30;;
23082;SDS011;11709;52.420;10.538;2022-07-29T22:11:54;5.50;;;3.92;;
23082;SDS011;11709;52.420;10.538;2022-07-29T22:15:56;7.92;;;4.17;;
23082;SDS011;11709;52.420;10.538;2022-07-29T22:19:59;7.03;;;4.28;;
23082;SDS011;11709;52.420;10.538;2022-07-29T22:24:02;5.45;;;3.85;;
23082;SDS011;11709;52.420;10.538;2022-07-29T22:28:04;8.78;;;4.22;;
23082;SDS011;11709;52.420;10.538;2022-07-29T22:32:07;6.35;;;4.15;;
23082;SDS011;11709;52.420;10.538;2022-07-29T22:36:10;6.60;;;4.85;;
23082;SDS011;11709;52.420;10.538;2022-07-29T22:40:12;6.50;;;4.03;;
23082;SDS011;11709;52.420;10.538;2022-07-29T22:44:15;7.60;;;4.55;;
23082;SDS011;11709;52.420;10.538;2022-07-29T22:48:18;16.65;;;5.62;;
23082;SDS011;11709;52.420;10.538;2022-07-29T22:52:20;12.37;;;4.65;;
23082;SDS011;11709;52.420;10.538;2022-07-29T22:56:23;11.48;;;4.83;;
23082;SDS011;11709;52.420;10.538;2022-07-29T23:00:25;5.87;;;4.50;;
23082;SDS011;11709;52.420;10.538;2022-07-29T23:04:28;7.05;;;4.28;;
23082;SDS011;11709;52.420;10.538;2022-07-29T23:08:30;9.48;;;4.50;;
23082;SDS011;11709;52.420;10.538;2022-07-29T23:12:33;9.23;;;4.70;;
23082;SDS011;11709;52.420;10.538;2022-07-29T23:16:35;13.05;;;4.33;;
23082;SDS011;11709;52.420;10.538;2022-07-29T23:20:38;8.05;;;3.98;;
23082;SDS011;11709;52.420;10.538;2022-07-29T23:24:40;6.55;;;4.00;;
23082;SDS011;11709;52.420;10.538;2022-07-29T23:28:43;5.87;;;4.03;;
23082;SDS011;11709;52.420;10.538;2022-07-29T23:32:46;4.12;;;3.62;;
23082;SDS011;11709;52.420;10.538;2022-07-29T23:36:48;6.35;;;3.85;;
23082;SDS011;11709;52.420;10.538;2022-07-29T23:40:51;8.23;;;3.90;;
23082;SDS011;11709;52.420;10.538;2022-07-29T23:44:53;6.50;;;4.12;;
23082;SDS011;11709;52.420;10.538;2022-07-29T23:48:56;11.43;;;4.53;;
23082;SDS011;11709;52.420;10.538;2022-07-29T23:52:58;12.53;;;3.98;;
23082;SDS011;11709;52.420;10.538;2022-07-29T23:57:01;6.83;;;4.03;;
